Webcam

2022/08/14 23:20 EBBR 142320Z 26007KT CAVOK 24/12 Q1005 NOSIG

Webcam

--- Refresh now ---